sensor_id;sensor_type;location;lat;lon;timestamp;pressure;altitude;pressure_sealevel;temperature;humidity
1736;BME280;865;53.672;10.250;2022-09-01T00:01:56;102078.53;;;11.02;100.00
1736;BME280;865;53.672;10.250;2022-09-01T00:04:24;102082.88;;;11.03;100.00
1736;BME280;865;53.672;10.250;2022-09-01T00:06:54;102084.63;;;11.16;100.00
1736;BME280;865;53.672;10.250;2022-09-01T00:09:22;102081.13;;;11.20;100.00
1736;BME280;865;53.672;10.250;2022-09-01T00:11:51;102075.03;;;11.18;100.00
1736;BME280;865;53.672;10.250;2022-09-01T00:14:22;102079.38;;;10.99;100.00
1736;BME280;865;53.672;10.250;2022-09-01T00:16:58;102072.41;;;10.93;100.00
1736;BME280;865;53.672;10.250;2022-09-01T00:19:25;102068.94;;;10.85;100.00
1736;BME280;865;53.672;10.250;2022-09-01T00:21:51;102073.31;;;10.86;100.00
1736;BME280;865;53.672;10.250;2022-09-01T00:24:18;102072.41;;;11.09;100.00
1736;BME280;865;53.672;10.250;2022-09-01T00:26:45;102062.84;;;11.06;100.00
1736;BME280;865;53.672;10.250;2022-09-01T00:29:12;102067.19;;;10.90;100.00
1736;BME280;865;53.672;10.250;2022-09-01T00:31:38;102064.59;;;10.80;100.00
1736;BME280;865;53.672;10.250;2022-09-01T00:34:05;102072.41;;;10.73;100.00
1736;BME280;865;53.672;10.250;2022-09-01T00:36:32;102067.19;;;10.70;100.00
1736;BME280;865;53.672;10.250;2022-09-01T00:38:58;102064.56;;;10.64;100.00
1736;BME280;865;53.672;10.250;2022-09-01T00:41:29;102064.56;;;10.51;100.00
1736;BME280;865;53.672;10.250;2022-09-01T00:44:05;102071.50;;;10.52;100.00
1736;BME280;865;53.672;10.250;2022-09-01T00:46:35;102063.69;;;10.48;100.00
1736;BME280;865;53.672;10.250;2022-09-01T00:49:21;102071.53;;;10.47;100.00
1736;BME280;865;53.672;10.250;2022-09-01T00:51:55;102072.38;;;10.51;100.00
1736;BME280;865;53.672;10.250;2022-09-01T00:54:34;102066.25;;;10.27;100.00
1736;BME280;865;53.672;10.250;2022-09-01T00:57:01;102065.31;;;10.19;100.00
1736;BME280;865;53.672;10.250;2022-09-01T00:59:29;102060.97;;;10.21;100.00
1736;BME280;865;53.672;10.250;2022-09-01T01:01:56;102064.53;;;10.32;100.00
1736;BME280;865;53.672;10.250;2022-09-01T01:04:23;102065.38;;;10.34;100.00
1736;BME280;865;53.672;10.250;2022-09-01T01:06:54;102061.03;;;10.35;100.00
1736;BME280;865;53.672;10.250;2022-09-01T01:09:32;102061.94;;;10.35;100.00
1736;BME280;865;53.672;10.250;2022-09-01T01:12:01;102059.31;;;10.52;100.00
1736;BME280;865;53.672;10.250;2022-09-01T01:14:29;102059.34;;;10.44;100.00
1736;BME280;865;53.672;10.250;2022-09-01T01:16:58;102059.31;;;10.38;100.00
1736;BME280;865;53.672;10.250;2022-09-01T01:19:31;102051.41;;;10.24;100.00
1736;BME280;865;53.672;10.250;2022-09-01T01:22:31;102059.19;;;10.08;100.00
1736;BME280;865;53.672;10.250;2022-09-01T01:25:19;102057.44;;;10.05;100.00
1736;BME280;865;53.672;10.250;2022-09-01T01:27:47;102060.03;;;10.03;100.00
1736;BME280;865;53.672;10.250;2022-09-01T01:30:15;102060.91;;;10.04;100.00
1736;BME280;865;53.672;10.250;2022-09-01T01:32:44;102063.53;;;10.09;100.00
1736;BME280;865;53.672;10.250;2022-09-01T01:35:15;102069.63;;;10.11;100.00
1736;BME280;865;53.672;10.250;2022-09-01T01:37:43;102060.94;;;10.12;100.00
1736;BME280;865;53.672;10.250;2022-09-01T01:40:14;102067.03;;;10.20;100.00
1736;BME280;865;53.672;10.250;2022-09-01T01:42:46;102070.59;;;10.33;100.00
1736;BME280;865;53.672;10.250;2022-09-01T01:45:14;102061.06;;;10.42;100.00
1736;BME280;865;53.672;10.250;2022-09-01T01:47:47;102061.94;;;10.38;100.00
1736;BME280;865;53.672;10.250;2022-09-01T01:50:27;102064.53;;;10.37;100.00
1736;BME280;865;53.672;10.250;2022-09-01T01:52:59;102066.16;;;10.19;100.00
1736;BME280;865;53.672;10.250;2022-09-01T01:55:26;102066.19;;;10.21;100.00
1736;BME280;865;53.672;10.250;2022-09-01T01:57:54;102062.66;;;10.07;100.00
1736;BME280;865;53.672;10.250;2022-09-01T02:00:24;102066.09;;;10.01;100.00
1736;BME280;865;53.672;10.250;2022-09-01T02:02:56;102057.41;;;9.99;100.00
1736;BME280;865;53.672;10.250;2022-09-01T02:05:26;102060.88;;;9.98;100.00
1736;BME280;865;53.672;10.250;2022-09-01T02:07:54;102059.16;;;10.01;100.00
1736;BME280;865;53.672;10.250;2022-09-01T02:10:30;102067.81;;;9.93;100.00
1736;BME280;865;53.672;10.250;2022-09-01T02:12:59;102062.63;;;9.99;100.00
1736;BME280;865;53.672;10.250;2022-09-01T02:15:31;102054.78;;;9.88;100.00
1736;BME280;865;53.672;10.250;2022-09-01T02:18:44;102060.88;;;9.92;100.00
1736;BME280;865;53.672;10.250;2022-09-01T02:21:04;102060.88;;;9.92;100.00
1736;BME280;865;53.672;10.250;2022-09-01T02:23:40;102062.56;;;9.87;100.00
1736;BME280;865;53.672;10.250;2022-09-01T02:26:08;102060.78;;;9.70;100.00
1736;BME280;865;53.672;10.250;2022-09-01T02:28:44;102065.06;;;9.64;100.00
1736;BME280;865;53.672;10.250;2022-09-01T02:31:17;102066.81;;;9.65;100.00
1736;BME280;865;53.672;10.250;2022-09-01T02:33:46;102065.97;;;9.72;100.00
1736;BME280;865;53.672;10.250;2022-09-01T02:36:15;102062.53;;;9.73;100.00
1736;BME280;865;53.672;10.250;2022-09-01T02:38:43;102059.94;;;9.76;100.00
1736;BME280;865;53.672;10.250;2022-09-01T02:41:13;102059.97;;;9.85;100.00
1736;BME280;865;53.672;10.250;2022-09-01T02:43:40;102052.13;;;9.80;100.00
1736;BME280;865;53.672;10.250;2022-09-01T02:46:08;102052.94;;;9.72;100.00
1736;BME280;865;53.672;10.250;2022-09-01T02:48:38;102049.50;;;9.74;100.00
1736;BME280;865;53.672;10.250;2022-09-01T02:51:07;102047.72;;;9.64;100.00
1736;BME280;865;53.672;10.250;2022-09-01T02:53:35;102055.47;;;9.52;100.00
1736;BME280;865;53.672;10.250;2022-09-01T02:56:03;102050.25;;;9.49;100.00
1736;BME280;865;53.672;10.250;2022-09-01T02:58:30;102054.56;;;9.50;100.00
1736;BME280;865;53.672;10.250;2022-09-01T03:00:59;102051.13;;;9.55;100.00
1736;BME280;865;53.672;10.250;2022-09-01T03:03:28;102051.09;;;9.49;100.00
1736;BME280;865;53.672;10.250;2022-09-01T03:05:54;102052.75;;;9.38;100.00
1736;BME280;865;53.672;10.250;2022-09-01T03:08:23;102056.28;;;9.43;100.00
1736;BME280;865;53.672;10.250;2022-09-01T03:10:50;102061.53;;;9.52;100.00
1736;BME280;865;53.672;10.250;2022-09-01T03:13:22;102048.47;;;9.48;100.00
1736;BME280;865;53.672;10.250;2022-09-01T03:15:49;102051.88;;;9.36;100.00
1736;BME280;865;53.672;10.250;2022-09-01T03:18:16;102060.59;;;9.43;100.00
1736;BME280;865;53.672;10.250;2022-09-01T03:20:45;102063.19;;;9.40;100.00
1736;BME280;865;53.672;10.250;2022-09-01T03:23:13;102064.00;;;9.29;100.00
1736;BME280;865;53.672;10.250;2022-09-01T03:25:46;102062.31;;;9.39;100.00
1736;BME280;865;53.672;10.250;2022-09-01T03:28:13;102065.78;;;9.40;100.00
1736;BME280;865;53.672;10.250;2022-09-01T03:30:46;102065.75;;;9.33;100.00
1736;BME280;865;53.672;10.250;2022-09-01T03:33:15;102062.28;;;9.34;100.00
1736;BME280;865;53.672;10.250;2022-09-01T03:35:43;102055.44;;;9.49;100.00
1736;BME280;865;53.672;10.250;2022-09-01T03:38:10;102061.50;;;9.46;100.00
1736;BME280;865;53.672;10.250;2022-09-01T03:40:38;102061.53;;;9.52;100.00
1736;BME280;865;53.672;10.250;2022-09-01T03:43:07;102056.31;;;9.51;100.00
1736;BME280;865;53.672;10.250;2022-09-01T03:45:39;102048.44;;;9.40;100.00
1736;BME280;865;53.672;10.250;2022-09-01T03:48:07;102046.66;;;9.36;100.00
1736;BME280;865;53.672;10.250;2022-09-01T03:50:39;102041.44;;;9.31;100.00
1736;BME280;865;53.672;10.250;2022-09-01T03:53:17;102042.28;;;9.30;100.00
1736;BME280;865;53.672;10.250;2022-09-01T03:55:46;102041.44;;;9.33;100.00
1736;BME280;865;53.672;10.250;2022-09-01T03:58:15;102051.00;;;9.32;100.00
1736;BME280;865;53.672;10.250;2022-09-01T04:00:47;102052.72;;;9.33;100.00
1736;BME280;865;53.672;10.250;2022-09-01T04:03:16;102047.56;;;9.38;100.00
1736;BME280;865;53.672;10.250;2022-09-01T04:05:54;102048.44;;;9.42;100.00
1736;BME280;865;53.672;10.250;2022-09-01T04:08:22;102044.16;;;9.50;100.00
1736;BME280;865;53.672;10.250;2022-09-01T04:11:11;102047.56;;;9.38;100.00
1736;BME280;865;53.672;10.250;2022-09-01T04:13:40;102040.53;;;9.31;100.00
1736;BME280;865;53.672;10.250;2022-09-01T04:16:17;102049.16;;;9.18;100.00
1736;BME280;865;53.672;10.250;2022-09-01T04:19:03;102046.56;;;9.16;100.00
1736;BME280;865;53.672;10.250;2022-09-01T04:21:42;102043.88;;;9.08;100.00
1736;BME280;865;53.672;10.250;2022-09-01T04:24:09;102042.16;;;9.10;100.00
1736;BME280;865;53.672;10.250;2022-09-01T04:26:37;102055.06;;;8.98;100.00
1736;BME280;865;53.672;10.250;2022-09-01T04:29:04;102049.03;;;9.02;100.00
1736;BME280;865;53.672;10.250;2022-09-01T04:31:31;102045.53;;;9.00;100.00
1736;BME280;865;53.672;10.250;2022-09-01T04:33:58;102053.41;;;9.09;100.00
1736;BME280;865;53.672;10.250;2022-09-01T04:36:29;102056.06;;;9.16;100.00
1736;BME280;865;53.672;10.250;2022-09-01T04:39:00;102051.69;;;9.10;100.00
1736;BME280;865;53.672;10.250;2022-09-01T04:41:30;102059.38;;;8.93;100.00
1736;BME280;865;53.672;10.250;2022-09-01T04:43:59;102054.28;;;9.05;100.00
1736;BME280;865;53.672;10.250;2022-09-01T04:46:32;102049.97;;;9.12;100.00
1736;BME280;865;53.672;10.250;2022-09-01T04:49:02;102051.59;;;8.96;100.00
1736;BME280;865;53.672;10.250;2022-09-01T04:51:40;102050.69;;;8.91;100.00
1736;BME280;865;53.672;10.250;2022-09-01T04:54:08;102055.84;;;8.83;100.00
1736;BME280;865;53.672;10.250;2022-09-01T04:56:38;102054.16;;;8.90;100.00
1736;BME280;865;53.672;10.250;2022-09-01T04:59:04;102056.00;;;9.06;100.00
1736;BME280;865;53.672;10.250;2022-09-01T05:01:34;102054.25;;;9.07;100.00
1736;BME280;865;53.672;10.250;2022-09-01T05:04:10;102061.19;;;9.03;100.00
1736;BME280;865;53.672;10.250;2022-09-01T05:06:41;102047.34;;;9.07;100.00
1736;BME280;865;53.672;10.250;2022-09-01T05:09:09;102050.06;;;9.27;100.00
1736;BME280;865;53.672;10.250;2022-09-01T05:11:38;102058.84;;;9.39;100.00
1736;BME280;865;53.672;10.250;2022-09-01T05:14:04;102052.72;;;9.29;100.00
1736;BME280;865;53.672;10.250;2022-09-01T05:16:33;102056.94;;;9.15;100.00
1736;BME280;865;53.672;10.250;2022-09-01T05:19:00;102059.53;;;9.11;100.00
1736;BME280;865;53.672;10.250;2022-09-01T05:21:27;102059.59;;;9.24;100.00
1736;BME280;865;53.672;10.250;2022-09-01T05:23:57;102051.84;;;9.28;100.00
1736;BME280;865;53.672;10.250;2022-09-01T05:26:28;102064.91;;;9.39;100.00
1736;BME280;865;53.672;10.250;2022-09-01T05:29:03;102065.81;;;9.44;100.00
1736;BME280;865;53.672;10.250;2022-09-01T05:31:30;102058.94;;;9.52;100.00
1736;BME280;865;53.672;10.250;2022-09-01T05:34:03;102057.28;;;9.67;100.00
1736;BME280;865;53.672;10.250;2022-09-01T05:36:30;102060.81;;;9.76;100.00
1736;BME280;865;53.672;10.250;2022-09-01T05:38:59;102068.63;;;9.81;100.00
1736;BME280;865;53.672;10.250;2022-09-01T05:41:27;102066.06;;;9.93;100.00
1736;BME280;865;53.672;10.250;2022-09-01T05:43:54;102065.25;;;10.07;100.00
1736;BME280;865;53.672;10.250;2022-09-01T05:46:26;102067.13;;;10.31;100.00
1736;BME280;865;53.672;10.250;2022-09-01T05:48:53;102067.13;;;10.32;100.00
1736;BME280;865;53.672;10.250;2022-09-01T05:51:23;102063.69;;;10.52;100.00
1736;BME280;865;53.672;10.250;2022-09-01T05:54:09;102066.31;;;10.76;100.00
1736;BME280;865;53.672;10.250;2022-09-01T05:56:37;102058.50;;;10.91;100.00
1736;BME280;865;53.672;10.250;2022-09-01T05:59:09;102060.25;;;11.08;100.00
1736;BME280;865;53.672;10.250;2022-09-01T06:01:53;102061.13;;;11.13;100.00
1736;BME280;865;53.672;10.250;2022-09-01T06:04:21;102060.25;;;11.22;100.00
1736;BME280;865;53.672;10.250;2022-09-01T06:06:48;102061.09;;;11.14;100.00
1736;BME280;865;53.672;10.250;2022-09-01T06:09:38;102062.84;;;11.20;100.00
1736;BME280;865;53.672;10.250;2022-09-01T06:12:06;102065.41;;;11.38;100.00
1736;BME280;865;53.672;10.250;2022-09-01T06:14:34;102068.00;;;11.54;100.00
1736;BME280;865;53.672;10.250;2022-09-01T06:17:00;102067.06;;;11.72;100.00
1736;BME280;865;53.672;10.250;2022-09-01T06:19:28;102071.44;;;11.71;100.00
1736;BME280;865;53.672;10.250;2022-09-01T06:22:00;102067.06;;;11.85;100.00
1736;BME280;865;53.672;10.250;2022-09-01T06:24:27;102070.47;;;12.06;100.00
1736;BME280;865;53.672;10.250;2022-09-01T06:26:54;102066.91;;;12.24;100.00
1736;BME280;865;53.672;10.250;2022-09-01T06:29:20;102070.31;;;12.41;100.00
1736;BME280;865;53.672;10.250;2022-09-01T06:31:46;102071.09;;;12.56;100.00
1736;BME280;865;53.672;10.250;2022-09-01T06:34:17;102058.78;;;12.67;100.00
1736;BME280;865;53.672;10.250;2022-09-01T06:36:45;102062.97;;;12.88;100.00
1736;BME280;865;53.672;10.250;2022-09-01T06:39:14;102054.13;;;13.04;100.00
1736;BME280;865;53.672;10.250;2022-09-01T06:41:49;102064.44;;;13.24;100.00
1736;BME280;865;53.672;10.250;2022-09-01T06:44:18;102067.84;;;13.32;100.00
1736;BME280;865;53.672;10.250;2022-09-01T06:46:51;102069.38;;;13.53;100.00
1736;BME280;865;53.672;10.250;2022-09-01T06:49:21;102072.00;;;13.55;100.00
1736;BME280;865;53.672;10.250;2022-09-01T06:51:55;102067.50;;;13.67;100.00
1736;BME280;865;53.672;10.250;2022-09-01T06:54:22;102080.44;;;13.83;100.00
1736;BME280;865;53.672;10.250;2022-09-01T06:56:49;102069.84;;;13.92;100.00
1736;BME280;865;53.672;10.250;2022-09-01T06:59:18;102074.09;;;14.02;100.00
1736;BME280;865;53.672;10.250;2022-09-01T07:01:45;102078.22;;;14.20;99.75
1736;BME280;865;53.672;10.250;2022-09-01T07:04:14;102073.69;;;14.31;99.29
1736;BME280;865;53.672;10.250;2022-09-01T07:06:45;102074.38;;;14.46;98.17
1736;BME280;865;53.672;10.250;2022-09-01T07:09:35;102069.75;;;14.65;96.97
1736;BME280;865;53.672;10.250;2022-09-01T07:12:15;102068.75;;;14.73;95.47
1736;BME280;865;53.672;10.250;2022-09-01T07:14:53;102073.59;;;14.99;94.74
1736;BME280;865;53.672;10.250;2022-09-01T07:17:41;102068.00;;;15.18;93.83
1736;BME280;865;53.672;10.250;2022-09-01T07:20:08;102064.22;;;15.33;92.12
1736;BME280;865;53.672;10.250;2022-09-01T07:22:54;102065.09;;;15.33;91.07
1736;BME280;865;53.672;10.250;2022-09-01T07:25:29;102068.16;;;15.57;90.41
1736;BME280;865;53.672;10.250;2022-09-01T07:28:20;102066.38;;;15.59;89.46
1736;BME280;865;53.672;10.250;2022-09-01T07:30:51;102065.50;;;15.58;88.94
1736;BME280;865;53.672;10.250;2022-09-01T07:33:19;102069.66;;;15.71;89.14
1736;BME280;865;53.672;10.250;2022-09-01T07:36:09;102064.16;;;15.82;87.87
1736;BME280;865;53.672;10.250;2022-09-01T07:38:52;102071.91;;;15.91;87.15
1736;BME280;865;53.672;10.250;2022-09-01T07:41:40;102060.28;;;16.02;85.67
1736;BME280;865;53.672;10.250;2022-09-01T07:44:27;102068.03;;;16.08;84.71
1736;BME280;865;53.672;10.250;2022-09-01T07:46:53;102057.16;;;16.23;83.89
1736;BME280;865;53.672;10.250;2022-09-01T07:49:40;102065.69;;;16.36;81.25
1736;BME280;865;53.672;10.250;2022-09-01T07:52:26;102067.97;;;16.51;81.57
1736;BME280;865;53.672;10.250;2022-09-01T07:54:53;102068.69;;;16.56;79.32
1736;BME280;865;53.672;10.250;2022-09-01T07:57:19;102060.47;;;16.70;79.19
1736;BME280;865;53.672;10.250;2022-09-01T07:59:48;102072.44;;;16.87;78.30
1736;BME280;865;53.672;10.250;2022-09-01T08:02:19;102073.22;;;16.90;75.89
1736;BME280;865;53.672;10.250;2022-09-01T08:04:45;102069.16;;;17.11;75.81
1736;BME280;865;53.672;10.250;2022-09-01T08:07:12;102079.41;;;17.23;75.13
1736;BME280;865;53.672;10.250;2022-09-01T08:09:41;102076.00;;;17.18;71.09
1736;BME280;865;53.672;10.250;2022-09-01T08:12:10;102081.28;;;17.18;70.43
1736;BME280;865;53.672;10.250;2022-09-01T08:14:36;102080.34;;;17.21;71.11
1736;BME280;865;53.672;10.250;2022-09-01T08:17:03;102080.22;;;17.25;70.87
1736;BME280;865;53.672;10.250;2022-09-01T08:19:50;102073.53;;;17.46;70.64
1736;BME280;865;53.672;10.250;2022-09-01T08:22:18;102073.78;;;17.68;65.93
1736;BME280;865;53.672;10.250;2022-09-01T08:24:49;102077.38;;;17.66;64.23
1736;BME280;865;53.672;10.250;2022-09-01T08:27:16;102078.06;;;17.72;65.25
1736;BME280;865;53.672;10.250;2022-09-01T08:29:42;102077.44;;;17.64;65.32
1736;BME280;865;53.672;10.250;2022-09-01T08:32:09;102074.13;;;17.56;66.03
1736;BME280;865;53.672;10.250;2022-09-01T08:34:36;102082.97;;;17.55;63.44
1736;BME280;865;53.672;10.250;2022-09-01T08:37:04;102080.56;;;17.77;63.99
1736;BME280;865;53.672;10.250;2022-09-01T08:39:31;102076.69;;;17.90;63.11
1736;BME280;865;53.672;10.250;2022-09-01T08:42:08;102082.97;;;17.86;64.12
1736;BME280;865;53.672;10.250;2022-09-01T08:44:53;102079.84;;;17.72;61.30
1736;BME280;865;53.672;10.250;2022-09-01T08:47:23;102082.22;;;17.83;62.18
1736;BME280;865;53.672;10.250;2022-09-01T08:50:05;102076.06;;;17.82;60.31
1736;BME280;865;53.672;10.250;2022-09-01T08:52:33;102085.50;;;17.91;61.13
1736;BME280;865;53.672;10.250;2022-09-01T08:57:42;102081.63;;;18.32;59.06
1736;BME280;865;53.672;10.250;2022-09-01T09:00:12;102079.03;;;18.31;58.64
1736;BME280;865;53.672;10.250;2022-09-01T09:11:12;102072.13;;;18.83;58.15
1736;BME280;865;53.672;10.250;2022-09-01T09:13:50;102074.56;;;18.61;57.81
1736;BME280;865;53.672;10.250;2022-09-01T09:16:25;102071.66;;;18.42;58.54
1736;BME280;865;53.672;10.250;2022-09-01T09:19:04;102065.56;;;18.66;57.43
1736;BME280;865;53.672;10.250;2022-09-01T09:21:38;102059.47;;;18.93;57.89
1736;BME280;865;53.672;10.250;2022-09-01T09:24:12;102061.16;;;18.95;56.15
1736;BME280;865;53.672;10.250;2022-09-01T09:26:49;102060.66;;;18.82;56.09
1736;BME280;865;53.672;10.250;2022-09-01T09:29:16;102058.66;;;18.90;57.26
1736;BME280;865;53.672;10.250;2022-09-01T09:31:43;102061.69;;;19.05;57.23
1736;BME280;865;53.672;10.250;2022-09-01T09:34:27;102060.66;;;19.09;56.99
1736;BME280;865;53.672;10.250;2022-09-01T09:36:54;102054.69;;;19.29;58.69
1736;BME280;865;53.672;10.250;2022-09-01T09:39:22;102056.97;;;19.40;57.49
1736;BME280;865;53.672;10.250;2022-09-01T09:42:10;102054.69;;;19.29;53.72
1736;BME280;865;53.672;10.250;2022-09-01T09:44:42;102049.41;;;19.29;57.15
1736;BME280;865;53.672;10.250;2022-09-01T09:47:32;102052.06;;;19.27;55.90
1736;BME280;865;53.672;10.250;2022-09-01T09:52:49;102048.69;;;19.24;56.99
1736;BME280;865;53.672;10.250;2022-09-01T09:55:28;102052.25;;;19.23;54.14
1736;BME280;865;53.672;10.250;2022-09-01T09:58:00;102036.84;;;19.09;54.91
1736;BME280;865;53.672;10.250;2022-09-01T10:00:34;102036.28;;;19.01;52.94
1736;BME280;865;53.672;10.250;2022-09-01T10:03:02;102036.78;;;18.85;55.27
1736;BME280;865;53.672;10.250;2022-09-01T10:05:44;102036.50;;;18.66;56.18
1736;BME280;865;53.672;10.250;2022-09-01T10:10:54;102030.00;;;18.77;57.50
1736;BME280;865;53.672;10.250;2022-09-01T10:13:25;102035.56;;;18.67;57.53
1736;BME280;865;53.672;10.250;2022-09-01T10:15:56;102023.13;;;18.71;58.78
1736;BME280;865;53.672;10.250;2022-09-01T10:18:30;102026.50;;;18.76;58.33
1736;BME280;865;53.672;10.250;2022-09-01T10:21:07;102023.75;;;18.79;59.85
1736;BME280;865;53.672;10.250;2022-09-01T10:23:35;102027.19;;;18.83;59.51
1736;BME280;865;53.672;10.250;2022-09-01T10:26:24;102022.19;;;18.74;60.99
1736;BME280;865;53.672;10.250;2022-09-01T10:28:56;102022.97;;;18.77;60.92
1736;BME280;865;53.672;10.250;2022-09-01T10:31:25;102027.13;;;18.84;60.21
1736;BME280;865;53.672;10.250;2022-09-01T10:33:59;102017.63;;;18.79;60.81
1736;BME280;865;53.672;10.250;2022-09-01T10:36:28;102019.78;;;18.66;60.28
1736;BME280;865;53.672;10.250;2022-09-01T10:38:55;102013.75;;;18.89;59.40
1736;BME280;865;53.672;10.250;2022-09-01T10:44:56;102017.53;;;19.32;58.45
1736;BME280;865;53.672;10.250;2022-09-01T10:47:30;102024.00;;;19.48;56.50
1736;BME280;865;53.672;10.250;2022-09-01T10:50:03;102017.69;;;19.52;53.87
1736;BME280;865;53.672;10.250;2022-09-01T10:55:21;102021.41;;;19.47;51.25
1736;BME280;865;53.672;10.250;2022-09-01T10:58:07;102020.59;;;19.45;51.81
1736;BME280;865;53.672;10.250;2022-09-01T11:01:00;102019.91;;;19.65;52.22
1736;BME280;865;53.672;10.250;2022-09-01T11:03:53;102006.16;;;19.78;51.99
1736;BME280;865;53.672;10.250;2022-09-01T11:06:32;102007.50;;;19.89;51.69
1736;BME280;865;53.672;10.250;2022-09-01T11:09:04;102002.84;;;19.95;48.22
1736;BME280;865;53.672;10.250;2022-09-01T11:14:24;102008.97;;;20.19;49.39
1736;BME280;865;53.672;10.250;2022-09-01T11:17:15;102005.31;;;20.22;51.33
1736;BME280;865;53.672;10.250;2022-09-01T11:20:06;102006.59;;;20.35;51.14
1736;BME280;865;53.672;10.250;2022-09-01T11:22:45;102007.66;;;20.08;51.90
1736;BME280;865;53.672;10.250;2022-09-01T11:25:37;102005.84;;;20.32;51.89
1736;BME280;865;53.672;10.250;2022-09-01T11:28:08;102003.06;;;20.57;49.96
1736;BME280;865;53.672;10.250;2022-09-01T11:30:41;102004.78;;;20.58;52.56
1736;BME280;865;53.672;10.250;2022-09-01T11:41:49;101991.50;;;20.80;49.64
1736;BME280;865;53.672;10.250;2022-09-01T11:44:55;101994.88;;;20.83;48.21
1736;BME280;865;53.672;10.250;2022-09-01T11:47:26;101996.28;;;20.49;48.40
1736;BME280;865;53.672;10.250;2022-09-01T11:50:03;101991.03;;;20.48;47.16
1736;BME280;865;53.672;10.250;2022-09-01T11:52:33;101990.41;;;20.41;46.45
1736;BME280;865;53.672;10.250;2022-09-01T11:55:04;101985.13;;;19.97;46.85
1736;BME280;865;53.672;10.250;2022-09-01T11:57:37;101978.22;;;19.93;48.28
1736;BME280;865;53.672;10.250;2022-09-01T12:00:08;101984.53;;;19.89;49.38
1736;BME280;865;53.672;10.250;2022-09-01T12:02:43;101987.91;;;19.71;49.96
1736;BME280;865;53.672;10.250;2022-09-01T12:05:30;101981.56;;;19.51;51.41
1736;BME280;865;53.672;10.250;2022-09-01T12:07:58;101966.34;;;19.80;51.03
1736;BME280;865;53.672;10.250;2022-09-01T12:10:37;101978.91;;;19.75;53.40
1736;BME280;865;53.672;10.250;2022-09-01T12:13:21;101978.72;;;19.56;52.12
1736;BME280;865;53.672;10.250;2022-09-01T12:15:54;101973.06;;;19.67;52.73
1736;BME280;865;53.672;10.250;2022-09-01T12:18:49;101967.41;;;19.76;50.65
1736;BME280;865;53.672;10.250;2022-09-01T12:21:21;101972.25;;;19.65;49.96
1736;BME280;865;53.672;10.250;2022-09-01T12:23:48;101970.69;;;19.83;51.40
1736;BME280;865;53.672;10.250;2022-09-01T12:26:19;101970.50;;;19.87;53.87
1736;BME280;865;53.672;10.250;2022-09-01T12:28:46;101967.63;;;19.93;52.62
1736;BME280;865;53.672;10.250;2022-09-01T12:31:17;101973.16;;;19.64;52.38
1736;BME280;865;53.672;10.250;2022-09-01T12:33:46;101967.44;;;19.51;53.10
1736;BME280;865;53.672;10.250;2022-09-01T12:42:00;101955.63;;;19.36;53.58
1736;BME280;865;53.672;10.250;2022-09-01T12:47:05;101966.78;;;19.21;55.45
1736;BME280;865;53.672;10.250;2022-09-01T12:49:38;101954.16;;;19.29;52.88
1736;BME280;865;53.672;10.250;2022-09-01T12:54:47;101950.56;;;19.53;53.36
1736;BME280;865;53.672;10.250;2022-09-01T12:57:33;101947.78;;;20.03;50.65
1736;BME280;865;53.672;10.250;2022-09-01T13:02:40;101942.13;;;20.35;49.16
1736;BME280;865;53.672;10.250;2022-09-01T13:07:58;101947.88;;;20.66;47.63
1736;BME280;865;53.672;10.250;2022-09-01T13:10:31;101949.25;;;20.75;46.49
1736;BME280;865;53.672;10.250;2022-09-01T13:12:58;101948.94;;;20.83;46.33
1736;BME280;865;53.672;10.250;2022-09-01T13:15:24;101950.84;;;20.59;46.60
1736;BME280;865;53.672;10.250;2022-09-01T13:17:51;101952.47;;;20.19;47.82
1736;BME280;865;53.672;10.250;2022-09-01T13:20:18;101946.19;;;19.99;49.48
1736;BME280;865;53.672;10.250;2022-09-01T13:22:44;101939.41;;;20.14;50.14
1736;BME280;865;53.672;10.250;2022-09-01T13:25:13;101946.28;;;20.40;47.75
1736;BME280;865;53.672;10.250;2022-09-01T13:27:41;101943.94;;;20.55;48.24
1736;BME280;865;53.672;10.250;2022-09-01T13:30:10;101941.63;;;20.88;47.28
1736;BME280;865;53.672;10.250;2022-09-01T13:32:38;101939.72;;;20.91;47.28
1736;BME280;865;53.672;10.250;2022-09-01T13:35:25;101943.41;;;20.67;48.75
1736;BME280;865;53.672;10.250;2022-09-01T13:37:52;101937.16;;;20.47;46.98
1736;BME280;865;53.672;10.250;2022-09-01T13:40:19;101936.78;;;20.57;46.37
1736;BME280;865;53.672;10.250;2022-09-01T13:42:51;101928.75;;;20.58;47.18
1736;BME280;865;53.672;10.250;2022-09-01T13:45:20;101932.09;;;20.63;46.71
1736;BME280;865;53.672;10.250;2022-09-01T13:47:50;101922.34;;;20.64;46.93
1736;BME280;865;53.672;10.250;2022-09-01T13:50:38;101916.31;;;20.81;46.15
1736;BME280;865;53.672;10.250;2022-09-01T13:53:24;101915.03;;;20.89;45.88
1736;BME280;865;53.672;10.250;2022-09-01T13:55:50;101911.44;;;21.11;47.58
1736;BME280;865;53.672;10.250;2022-09-01T13:58:17;101924.28;;;21.20;46.36
1736;BME280;865;53.672;10.250;2022-09-01T14:00:45;101925.06;;;21.03;45.97
1736;BME280;865;53.672;10.250;2022-09-01T14:03:15;101918.13;;;20.99;45.74
1736;BME280;865;53.672;10.250;2022-09-01T14:05:45;101923.00;;;20.89;47.51
1736;BME280;865;53.672;10.250;2022-09-01T14:08:15;101917.97;;;20.63;45.95
1736;BME280;865;53.672;10.250;2022-09-01T14:10:47;101918.66;;;20.46;47.31
1736;BME280;865;53.672;10.250;2022-09-01T14:13:16;101914.31;;;20.65;48.07
1736;BME280;865;53.672;10.250;2022-09-01T14:15:43;101913.78;;;20.78;48.76
1736;BME280;865;53.672;10.250;2022-09-01T14:18:10;101910.41;;;20.94;46.90
1736;BME280;865;53.672;10.250;2022-09-01T14:20:38;101910.03;;;21.02;47.58
1736;BME280;865;53.672;10.250;2022-09-01T14:23:08;101896.59;;;21.07;47.30
1736;BME280;865;53.672;10.250;2022-09-01T14:25:36;101904.03;;;21.17;47.40